sensor_id;sensor_type;location;lat;lon;timestamp;P1;durP1;ratioP1;P2;durP2;ratioP2
44434;SDS011;30138;20.964;105.830;2023-09-07T00:01:25;73.18;;;49.72;;
44434;SDS011;30138;20.964;105.830;2023-09-07T00:06:31;76.85;;;50.53;;
44434;SDS011;30138;20.964;105.830;2023-09-07T00:11:37;77.28;;;50.33;;
44434;SDS011;30138;20.964;105.830;2023-09-07T00:16:45;84.22;;;55.28;;
44434;SDS011;30138;20.964;105.830;2023-09-07T00:21:52;80.50;;;53.33;;
44434;SDS011;30138;20.964;105.830;2023-09-07T00:26:58;74.32;;;50.13;;
44434;SDS011;30138;20.964;105.830;2023-09-07T00:32:08;68.68;;;45.78;;
44434;SDS011;30138;20.964;105.830;2023-09-07T00:37:14;64.10;;;42.90;;
44434;SDS011;30138;20.964;105.830;2023-09-07T00:42:20;60.90;;;40.50;;
44434;SDS011;30138;20.964;105.830;2023-09-07T00:47:28;54.15;;;37.25;;
44434;SDS011;30138;20.964;105.830;2023-09-07T00:52:35;57.00;;;36.72;;
44434;SDS011;30138;20.964;105.830;2023-09-07T00:57:43;57.00;;;37.75;;
44434;SDS011;30138;20.964;105.830;2023-09-07T01:02:52;46.70;;;33.47;;
44434;SDS011;30138;20.964;105.830;2023-09-07T01:08:00;47.88;;;32.47;;
44434;SDS011;30138;20.964;105.830;2023-09-07T01:13:19;45.00;;;31.10;;
44434;SDS011;30138;20.964;105.830;2023-09-07T01:18:26;40.83;;;29.08;;
44434;SDS011;30138;20.964;105.830;2023-09-07T01:23:34;40.92;;;28.45;;
44434;SDS011;30138;20.964;105.830;2023-09-07T01:28:41;36.95;;;26.25;;
44434;SDS011;30138;20.964;105.830;2023-09-07T01:33:47;37.33;;;26.20;;
44434;SDS011;30138;20.964;105.830;2023-09-07T01:38:54;33.67;;;23.77;;
44434;SDS011;30138;20.964;105.830;2023-09-07T01:44:01;30.88;;;23.40;;
44434;SDS011;30138;20.964;105.830;2023-09-07T01:49:07;36.42;;;23.60;;
44434;SDS011;30138;20.964;105.830;2023-09-07T01:54:15;28.70;;;21.75;;
44434;SDS011;30138;20.964;105.830;2023-09-07T01:59:21;29.08;;;22.20;;
44434;SDS011;30138;20.964;105.830;2023-09-07T02:04:28;29.15;;;20.40;;
44434;SDS011;30138;20.964;105.830;2023-09-07T02:09:36;29.48;;;21.25;;
44434;SDS011;30138;20.964;105.830;2023-09-07T02:14:42;26.02;;;19.38;;
44434;SDS011;30138;20.964;105.830;2023-09-07T02:19:48;25.73;;;18.77;;
44434;SDS011;30138;20.964;105.830;2023-09-07T02:24:55;25.20;;;18.73;;
44434;SDS011;30138;20.964;105.830;2023-09-07T02:30:01;26.25;;;18.63;;
44434;SDS011;30138;20.964;105.830;2023-09-07T02:35:08;26.00;;;17.58;;
44434;SDS011;30138;20.964;105.830;2023-09-07T02:40:17;25.20;;;18.20;;
44434;SDS011;30138;20.964;105.830;2023-09-07T02:45:24;28.20;;;18.02;;
44434;SDS011;30138;20.964;105.830;2023-09-07T02:50:31;23.27;;;17.83;;
44434;SDS011;30138;20.964;105.830;2023-09-07T02:55:41;23.33;;;17.50;;
44434;SDS011;30138;20.964;105.830;2023-09-07T03:00:47;24.90;;;16.52;;
44434;SDS011;30138;20.964;105.830;2023-09-07T03:05:56;21.40;;;16.30;;
44434;SDS011;30138;20.964;105.830;2023-09-07T03:11:04;20.65;;;16.73;;
44434;SDS011;30138;20.964;105.830;2023-09-07T03:16:11;20.75;;;16.80;;
44434;SDS011;30138;20.964;105.830;2023-09-07T03:21:17;25.15;;;17.40;;
44434;SDS011;30138;20.964;105.830;2023-09-07T03:26:29;24.25;;;15.73;;
44434;SDS011;30138;20.964;105.830;2023-09-07T03:31:36;20.50;;;15.45;;
44434;SDS011;30138;20.964;105.830;2023-09-07T03:36:42;22.25;;;16.45;;
44434;SDS011;30138;20.964;105.830;2023-09-07T03:41:51;21.45;;;15.88;;
44434;SDS011;30138;20.964;105.830;2023-09-07T03:47:02;20.92;;;15.63;;
44434;SDS011;30138;20.964;105.830;2023-09-07T03:52:09;19.25;;;15.40;;
44434;SDS011;30138;20.964;105.830;2023-09-07T03:57:17;18.95;;;15.05;;
44434;SDS011;30138;20.964;105.830;2023-09-07T04:07:33;18.15;;;14.88;;
44434;SDS011;30138;20.964;105.830;2023-09-07T04:12:41;18.83;;;14.45;;
44434;SDS011;30138;20.964;105.830;2023-09-07T04:17:49;20.63;;;15.07;;
44434;SDS011;30138;20.964;105.830;2023-09-07T04:22:57;18.02;;;14.30;;
44434;SDS011;30138;20.964;105.830;2023-09-07T04:28:05;21.17;;;15.07;;
44434;SDS011;30138;20.964;105.830;2023-09-07T04:33:12;18.92;;;14.60;;
44434;SDS011;30138;20.964;105.830;2023-09-07T04:38:18;19.27;;;14.30;;
44434;SDS011;30138;20.964;105.830;2023-09-07T04:43:27;18.45;;;14.20;;
44434;SDS011;30138;20.964;105.830;2023-09-07T04:48:33;31.65;;;23.63;;
44434;SDS011;30138;20.964;105.830;2023-09-07T04:53:40;49.05;;;36.03;;
44434;SDS011;30138;20.964;105.830;2023-09-07T04:58:49;46.58;;;34.83;;
44434;SDS011;30138;20.964;105.830;2023-09-07T05:03:55;43.30;;;32.75;;
44434;SDS011;30138;20.964;105.830;2023-09-07T05:09:03;39.45;;;29.70;;
44434;SDS011;30138;20.964;105.830;2023-09-07T05:14:13;37.65;;;28.15;;
44434;SDS011;30138;20.964;105.830;2023-09-07T05:19:21;34.90;;;27.08;;
44434;SDS011;30138;20.964;105.830;2023-09-07T05:24:28;31.60;;;24.90;;
44434;SDS011;30138;20.964;105.830;2023-09-07T05:29:37;33.22;;;23.92;;
44434;SDS011;30138;20.964;105.830;2023-09-07T05:34:43;29.27;;;23.73;;
44434;SDS011;30138;20.964;105.830;2023-09-07T05:39:50;27.85;;;22.13;;
44434;SDS011;30138;20.964;105.830;2023-09-07T05:44:58;28.60;;;22.48;;
44434;SDS011;30138;20.964;105.830;2023-09-07T05:50:05;26.67;;;21.15;;
44434;SDS011;30138;20.964;105.830;2023-09-07T05:55:12;24.70;;;20.15;;
44434;SDS011;30138;20.964;105.830;2023-09-07T06:00:20;25.27;;;20.27;;
44434;SDS011;30138;20.964;105.830;2023-09-07T06:05:27;22.90;;;19.33;;
44434;SDS011;30138;20.964;105.830;2023-09-07T06:10:35;22.45;;;18.60;;
44434;SDS011;30138;20.964;105.830;2023-09-07T06:15:46;22.20;;;18.10;;
44434;SDS011;30138;20.964;105.830;2023-09-07T06:20:54;19.73;;;16.40;;
44434;SDS011;30138;20.964;105.830;2023-09-07T06:26:00;19.05;;;16.23;;
44434;SDS011;30138;20.964;105.830;2023-09-07T06:31:09;20.88;;;16.45;;
44434;SDS011;30138;20.964;105.830;2023-09-07T06:36:15;18.67;;;15.80;;
44434;SDS011;30138;20.964;105.830;2023-09-07T06:41:21;18.63;;;15.70;;
44434;SDS011;30138;20.964;105.830;2023-09-07T06:46:29;18.20;;;14.95;;
44434;SDS011;30138;20.964;105.830;2023-09-07T06:51:36;18.60;;;15.50;;
44434;SDS011;30138;20.964;105.830;2023-09-07T06:56:42;17.50;;;13.98;;
44434;SDS011;30138;20.964;105.830;2023-09-07T07:01:52;17.88;;;14.43;;
44434;SDS011;30138;20.964;105.830;2023-09-07T07:07:00;16.05;;;13.13;;
44434;SDS011;30138;20.964;105.830;2023-09-07T07:12:07;16.50;;;12.85;;
44434;SDS011;30138;20.964;105.830;2023-09-07T07:17:15;15.63;;;13.07;;
44434;SDS011;30138;20.964;105.830;2023-09-07T07:22:24;22.17;;;16.67;;
44434;SDS011;30138;20.964;105.830;2023-09-07T07:27:30;27.58;;;19.20;;
44434;SDS011;30138;20.964;105.830;2023-09-07T07:32:38;24.95;;;18.25;;
44434;SDS011;30138;20.964;105.830;2023-09-07T07:37:45;23.63;;;17.25;;
44434;SDS011;30138;20.964;105.830;2023-09-07T07:42:52;21.15;;;16.58;;
44434;SDS011;30138;20.964;105.830;2023-09-07T07:48:01;20.40;;;16.55;;
44434;SDS011;30138;20.964;105.830;2023-09-07T07:53:10;20.10;;;14.85;;
44434;SDS011;30138;20.964;105.830;2023-09-07T07:58:19;19.35;;;14.13;;
44434;SDS011;30138;20.964;105.830;2023-09-07T08:03:28;17.20;;;14.07;;
44434;SDS011;30138;20.964;105.830;2023-09-07T08:08:34;16.23;;;13.48;;
44434;SDS011;30138;20.964;105.830;2023-09-07T08:13:41;15.98;;;14.13;;
44434;SDS011;30138;20.964;105.830;2023-09-07T08:18:50;16.48;;;13.63;;
44434;SDS011;30138;20.964;105.830;2023-09-07T08:23:57;18.25;;;13.65;;
44434;SDS011;30138;20.964;105.830;2023-09-07T08:29:05;18.70;;;13.20;;
44434;SDS011;30138;20.964;105.830;2023-09-07T08:34:14;15.48;;;13.20;;
44434;SDS011;30138;20.964;105.830;2023-09-07T08:39:22;16.75;;;12.63;;
44434;SDS011;30138;20.964;105.830;2023-09-07T08:44:28;16.63;;;13.18;;
44434;SDS011;30138;20.964;105.830;2023-09-07T08:49:39;14.38;;;12.52;;
44434;SDS011;30138;20.964;105.830;2023-09-07T08:54:48;14.85;;;12.30;;
44434;SDS011;30138;20.964;105.830;2023-09-07T08:59:55;13.70;;;12.18;;
44434;SDS011;30138;20.964;105.830;2023-09-07T09:05:04;13.82;;;11.65;;
44434;SDS011;30138;20.964;105.830;2023-09-07T09:10:13;13.77;;;12.00;;
44434;SDS011;30138;20.964;105.830;2023-09-07T09:15:23;16.13;;;11.52;;
44434;SDS011;30138;20.964;105.830;2023-09-07T09:20:31;11.98;;;10.77;;
44434;SDS011;30138;20.964;105.830;2023-09-07T09:25:40;12.48;;;11.18;;
44434;SDS011;30138;20.964;105.830;2023-09-07T09:30:46;17.52;;;14.57;;
44434;SDS011;30138;20.964;105.830;2023-09-07T09:35:54;17.83;;;15.07;;
44434;SDS011;30138;20.964;105.830;2023-09-07T09:41:01;18.40;;;14.38;;
44434;SDS011;30138;20.964;105.830;2023-09-07T09:46:07;17.92;;;14.98;;
44434;SDS011;30138;20.964;105.830;2023-09-07T09:51:17;18.23;;;14.20;;
44434;SDS011;30138;20.964;105.830;2023-09-07T09:56:23;15.90;;;13.60;;
44434;SDS011;30138;20.964;105.830;2023-09-07T10:01:29;15.48;;;12.68;;
44434;SDS011;30138;20.964;105.830;2023-09-07T10:06:58;14.05;;;12.35;;
44434;SDS011;30138;20.964;105.830;2023-09-07T10:12:10;15.27;;;12.25;;
44434;SDS011;30138;20.964;105.830;2023-09-07T10:17:21;14.38;;;11.05;;
44434;SDS011;30138;20.964;105.830;2023-09-07T10:22:29;14.47;;;12.07;;
44434;SDS011;30138;20.964;105.830;2023-09-07T10:27:39;13.50;;;11.43;;
44434;SDS011;30138;20.964;105.830;2023-09-07T10:32:45;12.30;;;10.80;;
44434;SDS011;30138;20.964;105.830;2023-09-07T10:37:54;13.15;;;11.02;;
44434;SDS011;30138;20.964;105.830;2023-09-07T10:43:02;14.00;;;10.77;;
44434;SDS011;30138;20.964;105.830;2023-09-07T10:48:10;12.55;;;10.68;;
44434;SDS011;30138;20.964;105.830;2023-09-07T10:53:24;14.68;;;10.93;;
44434;SDS011;30138;20.964;105.830;2023-09-07T10:58:32;15.20;;;10.85;;
44434;SDS011;30138;20.964;105.830;2023-09-07T11:03:40;11.48;;;10.10;;
44434;SDS011;30138;20.964;105.830;2023-09-07T11:08:49;12.23;;;10.38;;
44434;SDS011;30138;20.964;105.830;2023-09-07T11:13:57;13.98;;;10.77;;
44434;SDS011;30138;20.964;105.830;2023-09-07T11:19:03;14.50;;;10.65;;
44434;SDS011;30138;20.964;105.830;2023-09-07T11:24:13;10.95;;;9.68;;
44434;SDS011;30138;20.964;105.830;2023-09-07T11:29:19;22.60;;;17.50;;
44434;SDS011;30138;20.964;105.830;2023-09-07T11:34:27;23.48;;;16.88;;
44434;SDS011;30138;20.964;105.830;2023-09-07T11:39:35;20.73;;;16.38;;
44434;SDS011;30138;20.964;105.830;2023-09-07T11:44:42;19.70;;;15.38;;
44434;SDS011;30138;20.964;105.830;2023-09-07T11:49:48;18.88;;;14.65;;
44434;SDS011;30138;20.964;105.830;2023-09-07T11:55:13;21.08;;;17.35;;
44434;SDS011;30138;20.964;105.830;2023-09-07T12:00:19;21.13;;;16.23;;
44434;SDS011;30138;20.964;105.830;2023-09-07T12:05:25;44.42;;;30.90;;
44434;SDS011;30138;20.964;105.830;2023-09-07T12:10:42;46.03;;;32.22;;
44434;SDS011;30138;20.964;105.830;2023-09-07T12:15:48;39.72;;;29.38;;
44434;SDS011;30138;20.964;105.830;2023-09-07T12:20:55;42.08;;;28.60;;
44434;SDS011;30138;20.964;105.830;2023-09-07T12:26:02;42.20;;;28.52;;
44434;SDS011;30138;20.964;105.830;2023-09-07T12:31:08;39.08;;;27.23;;
44434;SDS011;30138;20.964;105.830;2023-09-07T12:36:16;40.97;;;27.42;;
44434;SDS011;30138;20.964;105.830;2023-09-07T12:41:24;37.33;;;26.60;;
44434;SDS011;30138;20.964;105.830;2023-09-07T12:46:30;39.15;;;26.02;;
44434;SDS011;30138;20.964;105.830;2023-09-07T12:51:37;32.78;;;24.90;;
44434;SDS011;30138;20.964;105.830;2023-09-07T12:56:45;38.33;;;26.20;;
44434;SDS011;30138;20.964;105.830;2023-09-07T13:01:53;35.15;;;25.48;;
44434;SDS011;30138;20.964;105.830;2023-09-07T13:07:02;40.25;;;26.83;;
44434;SDS011;30138;20.964;105.830;2023-09-07T13:12:10;34.20;;;25.27;;
44434;SDS011;30138;20.964;105.830;2023-09-07T13:23:10;50.83;;;33.00;;
44434;SDS011;30138;20.964;105.830;2023-09-07T13:28:18;48.28;;;35.63;;
44434;SDS011;30138;20.964;105.830;2023-09-07T13:33:25;51.60;;;34.15;;
44434;SDS011;30138;20.964;105.830;2023-09-07T13:38:31;47.85;;;33.03;;
44434;SDS011;30138;20.964;105.830;2023-09-07T13:43:39;48.03;;;32.20;;
44434;SDS011;30138;20.964;105.830;2023-09-07T13:48:45;44.88;;;31.25;;
44434;SDS011;30138;20.964;105.830;2023-09-07T13:53:52;42.58;;;28.98;;
44434;SDS011;30138;20.964;105.830;2023-09-07T13:59:00;39.65;;;28.42;;
44434;SDS011;30138;20.964;105.830;2023-09-07T14:04:06;39.35;;;28.40;;
44434;SDS011;30138;20.964;105.830;2023-09-07T14:09:12;37.67;;;26.50;;
44434;SDS011;30138;20.964;105.830;2023-09-07T14:14:20;38.20;;;26.77;;
44434;SDS011;30138;20.964;105.830;2023-09-07T14:19:26;34.80;;;25.52;;
44434;SDS011;30138;20.964;105.830;2023-09-07T14:24:33;36.13;;;24.98;;
44434;SDS011;30138;20.964;105.830;2023-09-07T14:29:41;34.70;;;25.10;;
44434;SDS011;30138;20.964;105.830;2023-09-07T14:34:47;33.88;;;24.23;;
44434;SDS011;30138;20.964;105.830;2023-09-07T14:39:54;35.45;;;23.63;;
44434;SDS011;30138;20.964;105.830;2023-09-07T14:45:03;33.90;;;24.13;;
44434;SDS011;30138;20.964;105.830;2023-09-07T14:50:11;33.50;;;23.73;;
44434;SDS011;30138;20.964;105.830;2023-09-07T14:55:17;31.35;;;22.75;;
44434;SDS011;30138;20.964;105.830;2023-09-07T15:00:26;31.80;;;22.77;;
44434;SDS011;30138;20.964;105.830;2023-09-07T15:05:33;31.47;;;23.33;;
44434;SDS011;30138;20.964;105.830;2023-09-07T15:10:40;33.40;;;23.42;;
44434;SDS011;30138;20.964;105.830;2023-09-07T15:15:48;33.97;;;23.45;;
44434;SDS011;30138;20.964;105.830;2023-09-07T15:20:55;31.13;;;21.90;;
44434;SDS011;30138;20.964;105.830;2023-09-07T15:26:01;31.70;;;21.83;;
44434;SDS011;30138;20.964;105.830;2023-09-07T15:31:09;30.92;;;21.52;;
44434;SDS011;30138;20.964;105.830;2023-09-07T15:36:16;32.35;;;21.88;;
44434;SDS011;30138;20.964;105.830;2023-09-07T15:41:23;30.58;;;21.85;;
44434;SDS011;30138;20.964;105.830;2023-09-07T15:46:32;29.10;;;21.30;;
44434;SDS011;30138;20.964;105.830;2023-09-07T15:51:39;29.88;;;20.95;;
44434;SDS011;30138;20.964;105.830;2023-09-07T15:56:46;29.33;;;20.92;;
44434;SDS011;30138;20.964;105.830;2023-09-07T16:01:54;27.05;;;19.70;;
44434;SDS011;30138;20.964;105.830;2023-09-07T16:07:00;26.02;;;19.67;;
44434;SDS011;30138;20.964;105.830;2023-09-07T16:12:06;27.73;;;20.33;;
44434;SDS011;30138;20.964;105.830;2023-09-07T16:17:15;27.27;;;19.27;;
44434;SDS011;30138;20.964;105.830;2023-09-07T16:22:22;78.90;;;48.67;;
44434;SDS011;30138;20.964;105.830;2023-09-07T16:27:28;70.13;;;46.45;;
44434;SDS011;30138;20.964;105.830;2023-09-07T16:32:40;62.00;;;42.60;;
44434;SDS011;30138;20.964;105.830;2023-09-07T16:37:47;56.33;;;38.92;;
44434;SDS011;30138;20.964;105.830;2023-09-07T16:42:53;52.67;;;36.90;;
44434;SDS011;30138;20.964;105.830;2023-09-07T16:48:01;45.58;;;33.83;;
44434;SDS011;30138;20.964;105.830;2023-09-07T16:53:07;44.97;;;31.85;;
44434;SDS011;30138;20.964;105.830;2023-09-07T16:58:14;42.97;;;31.67;;
44434;SDS011;30138;20.964;105.830;2023-09-07T17:03:22;40.58;;;30.58;;
44434;SDS011;30138;20.964;105.830;2023-09-07T17:08:29;41.95;;;30.38;;
44434;SDS011;30138;20.964;105.830;2023-09-07T17:13:36;44.55;;;32.58;;
44434;SDS011;30138;20.964;105.830;2023-09-07T17:18:45;47.20;;;33.38;;
44434;SDS011;30138;20.964;105.830;2023-09-07T17:23:52;43.42;;;31.35;;
44434;SDS011;30138;20.964;105.830;2023-09-07T17:28:57;38.75;;;28.52;;
44434;SDS011;30138;20.964;105.830;2023-09-07T17:34:07;36.72;;;27.52;;
44434;SDS011;30138;20.964;105.830;2023-09-07T17:39:12;33.05;;;26.13;;
44434;SDS011;30138;20.964;105.830;2023-09-07T17:44:18;33.03;;;25.25;;
44434;SDS011;30138;20.964;105.830;2023-09-07T17:49:27;33.13;;;24.85;;
44434;SDS011;30138;20.964;105.830;2023-09-07T17:54:34;33.85;;;24.15;;
44434;SDS011;30138;20.964;105.830;2023-09-07T17:59:39;28.95;;;22.80;;
44434;SDS011;30138;20.964;105.830;2023-09-07T18:04:48;27.35;;;20.50;;
44434;SDS011;30138;20.964;105.830;2023-09-07T18:09:55;26.58;;;20.90;;
44434;SDS011;30138;20.964;105.830;2023-09-07T18:15:03;26.02;;;20.90;;
44434;SDS011;30138;20.964;105.830;2023-09-07T18:20:12;23.33;;;18.98;;
44434;SDS011;30138;20.964;105.830;2023-09-07T18:25:20;23.10;;;18.73;;
44434;SDS011;30138;20.964;105.830;2023-09-07T18:30:26;21.25;;;17.20;;
44434;SDS011;30138;20.964;105.830;2023-09-07T18:35:34;20.58;;;16.55;;
44434;SDS011;30138;20.964;105.830;2023-09-07T18:40:40;19.40;;;15.30;;
44434;SDS011;30138;20.964;105.830;2023-09-07T18:45:49;18.85;;;14.70;;
44434;SDS011;30138;20.964;105.830;2023-09-07T18:51:01;18.27;;;14.85;;
44434;SDS011;30138;20.964;105.830;2023-09-07T18:56:08;15.75;;;13.13;;
44434;SDS011;30138;20.964;105.830;2023-09-07T19:01:14;16.00;;;13.10;;
44434;SDS011;30138;20.964;105.830;2023-09-07T19:06:23;14.50;;;12.88;;
44434;SDS011;30138;20.964;105.830;2023-09-07T19:11:30;14.38;;;12.50;;
44434;SDS011;30138;20.964;105.830;2023-09-07T19:16:37;14.82;;;12.65;;
44434;SDS011;30138;20.964;105.830;2023-09-07T19:21:44;13.55;;;12.10;;
44434;SDS011;30138;20.964;105.830;2023-09-07T19:26:51;15.43;;;11.80;;
44434;SDS011;30138;20.964;105.830;2023-09-07T19:31:57;13.10;;;11.32;;
44434;SDS011;30138;20.964;105.830;2023-09-07T19:37:05;12.43;;;10.90;;
44434;SDS011;30138;20.964;105.830;2023-09-07T19:42:11;12.63;;;10.65;;
44434;SDS011;30138;20.964;105.830;2023-09-07T19:47:17;11.75;;;10.35;;
44434;SDS011;30138;20.964;105.830;2023-09-07T19:52:26;11.85;;;10.18;;
44434;SDS011;30138;20.964;105.830;2023-09-07T19:57:32;12.32;;;10.02;;
44434;SDS011;30138;20.964;105.830;2023-09-07T20:02:39;11.40;;;10.00;;
44434;SDS011;30138;20.964;105.830;2023-09-07T20:07:48;10.48;;;9.38;;
44434;SDS011;30138;20.964;105.830;2023-09-07T20:12:54;9.75;;;8.75;;
44434;SDS011;30138;20.964;105.830;2023-09-07T20:18:00;10.45;;;9.32;;
44434;SDS011;30138;20.964;105.830;2023-09-07T20:23:08;9.27;;;8.35;;
44434;SDS011;30138;20.964;105.830;2023-09-07T20:28:18;10.50;;;8.55;;
44434;SDS011;30138;20.964;105.830;2023-09-07T20:33:26;9.50;;;8.50;;
44434;SDS011;30138;20.964;105.830;2023-09-07T20:38:34;9.75;;;8.38;;
44434;SDS011;30138;20.964;105.830;2023-09-07T20:43:40;9.15;;;7.97;;
44434;SDS011;30138;20.964;105.830;2023-09-07T20:48:48;8.63;;;7.72;;
44434;SDS011;30138;20.964;105.830;2023-09-07T20:53:55;8.30;;;7.50;;
44434;SDS011;30138;20.964;105.830;2023-09-07T20:59:01;8.48;;;7.20;;
44434;SDS011;30138;20.964;105.830;2023-09-07T21:04:08;8.43;;;7.60;;
44434;SDS011;30138;20.964;105.830;2023-09-07T21:09:15;8.20;;;7.30;;
44434;SDS011;30138;20.964;105.830;2023-09-07T21:14:21;7.15;;;6.18;;
44434;SDS011;30138;20.964;105.830;2023-09-07T21:19:29;7.70;;;6.90;;
44434;SDS011;30138;20.964;105.830;2023-09-07T21:24:37;7.57;;;6.78;;
44434;SDS011;30138;20.964;105.830;2023-09-07T21:29:43;7.30;;;6.60;;
44434;SDS011;30138;20.964;105.830;2023-09-07T21:34:50;7.20;;;6.50;;
44434;SDS011;30138;20.964;105.830;2023-09-07T21:39:59;6.85;;;6.15;;
44434;SDS011;30138;20.964;105.830;2023-09-07T21:45:05;7.15;;;6.43;;
44434;SDS011;30138;20.964;105.830;2023-09-07T21:50:13;6.57;;;5.88;;
44434;SDS011;30138;20.964;105.830;2023-09-07T21:55:22;6.13;;;5.53;;
44434;SDS011;30138;20.964;105.830;2023-09-07T22:00:30;6.13;;;5.53;;
44434;SDS011;30138;20.964;105.830;2023-09-07T22:05:37;6.25;;;5.65;;
44434;SDS011;30138;20.964;105.830;2023-09-07T22:10:44;7.72;;;5.32;;
44434;SDS011;30138;20.964;105.830;2023-09-07T22:15:50;5.32;;;4.82;;
44434;SDS011;30138;20.964;105.830;2023-09-07T22:20:57;5.88;;;5.03;;
44434;SDS011;30138;20.964;105.830;2023-09-07T22:26:05;5.60;;;5.10;;
44434;SDS011;30138;20.964;105.830;2023-09-07T22:31:11;5.57;;;5.07;;
44434;SDS011;30138;20.964;105.830;2023-09-07T22:36:18;5.55;;;5.05;;
44434;SDS011;30138;20.964;105.830;2023-09-07T22:41:26;6.00;;;5.00;;
44434;SDS011;30138;20.964;105.830;2023-09-07T22:46:33;5.57;;;5.00;;
44434;SDS011;30138;20.964;105.830;2023-09-07T22:51:39;5.70;;;4.97;;
44434;SDS011;30138;20.964;105.830;2023-09-07T22:56:48;5.43;;;4.93;;
44434;SDS011;30138;20.964;105.830;2023-09-07T23:01:54;5.57;;;5.03;;
44434;SDS011;30138;20.964;105.830;2023-09-07T23:07:02;4.63;;;4.22;;
44434;SDS011;30138;20.964;105.830;2023-09-07T23:12:09;4.65;;;4.25;;
44434;SDS011;30138;20.964;105.830;2023-09-07T23:17:16;4.97;;;4.47;;
44434;SDS011;30138;20.964;105.830;2023-09-07T23:22:22;4.60;;;4.15;;
44434;SDS011;30138;20.964;105.830;2023-09-07T23:27:30;4.43;;;4.03;;
44434;SDS011;30138;20.964;105.830;2023-09-07T23:32:38;4.47;;;4.07;;
44434;SDS011;30138;20.964;105.830;2023-09-07T23:37:46;4.65;;;4.15;;
44434;SDS011;30138;20.964;105.830;2023-09-07T23:42:54;4.93;;;4.38;;
44434;SDS011;30138;20.964;105.830;2023-09-07T23:48:00;4.57;;;4.15;;
44434;SDS011;30138;20.964;105.830;2023-09-07T23:53:07;4.10;;;3.70;;
44434;SDS011;30138;20.964;105.830;2023-09-07T23:58:14;4.38;;;3.97;;
